Time;durP1;ratioP1;P1;durP2;ratioP2;P2;SDS_P1;SDS_P2;PMS_P1;PMS_P2;Temp;Humidity;BMP_temperature;BMP_pressure;BME280_temperature;BME280_humidity;BME280_pressure;Samples;Min_cycle;Max_cycle;Signal;HPM_P1;HPM_P2
2021/06/10 00:00:15;;;;;;;3.93;2.00;;;16.40;56.00;15.70;102120.00;;;;5039645;28;20041;-70
2021/06/10 00:02:42;;;;;;;7.25;2.65;;;16.50;56.20;15.60;102120.00;;;;5040953;28;20053;-70
2021/06/10 00:05:11;;;;;;;5.57;3.10;;;16.40;56.40;15.50;102127.00;;;;5022018;28;20037;-70
2021/06/10 00:07:38;;;;;;;6.75;3.20;;;16.30;56.10;15.50;102117.00;;;;5036966;28;20072;-70
2021/06/10 00:10:13;;;;;;;4.10;2.72;;;16.30;56.10;15.40;102107.00;;;;5035323;28;20037;-70
2021/06/10 00:12:40;;;;;;;5.38;2.80;;;16.20;56.40;15.40;102104.00;;;;5017814;28;20131;-70
2021/06/10 00:15:09;;;;;;;;;;;16.20;56.50;15.20;102118.00;;;;5038725;28;20361;-71
2021/06/10 00:17:36;;;;;;;5.00;2.78;;;16.10;57.50;15.20;102105.00;;;;5042824;28;19970;-71
2021/06/10 00:20:07;;;;;;;3.10;2.47;;;16.10;56.30;15.20;102113.00;;;;5034433;28;20037;-71
2021/06/10 00:22:33;;;;;;;3.42;2.30;;;15.90;56.40;15.20;102115.00;;;;5054240;28;20029;-70
2021/06/10 00:25:00;;;;;;;4.03;2.50;;;15.90;56.90;15.10;102113.00;;;;5032876;28;20060;-71
2021/06/10 00:27:26;;;;;;;4.65;2.97;;;15.90;56.90;15.20;102118.00;;;;5038261;28;20037;-72
2021/06/10 00:29:52;;;;;;;4.75;3.33;;;15.90;57.10;15.20;102110.00;;;;5037802;28;20040;-71
2021/06/10 00:32:19;;;;;;;3.80;2.88;;;15.90;56.80;15.10;102107.00;;;;5037145;28;20095;-71
2021/06/10 00:34:45;;;;;;;4.22;3.00;;;15.90;57.50;15.10;102112.00;;;;5034319;28;20042;-71
2021/06/10 00:37:13;;;;;;;5.47;3.10;;;15.90;57.30;15.10;102099.00;;;;5040332;28;20075;-71
2021/06/10 00:39:40;;;;;;;4.97;3.17;;;15.90;57.80;15.10;102104.00;;;;5035557;28;20254;-71
2021/06/10 00:42:08;;;;;;;4.38;2.97;;;15.80;57.70;15.00;102106.00;;;;5035300;28;20044;-71
2021/06/10 00:44:34;;;;;;;5.70;3.25;;;15.80;57.20;15.00;102106.00;;;;5037442;28;20039;-71
2021/06/10 00:47:00;;;;;;;8.45;3.85;;;15.80;58.00;15.00;102104.00;;;;5020280;28;20110;-71
2021/06/10 00:49:27;;;;;;;5.07;3.53;;;15.70;57.90;14.90;102097.00;;;;5051539;28;20060;-70
2021/06/10 00:51:53;;;;;;;6.07;3.40;;;15.70;58.20;14.90;102095.00;;;;5036921;28;20303;-71
2021/06/10 00:54:19;;;;;;;5.32;3.65;;;15.70;58.30;14.90;102096.00;;;;5053213;28;20391;-71
2021/06/10 00:56:46;;;;;;;4.80;3.53;;;15.70;58.80;14.90;102103.00;;;;5040946;28;20045;-71
2021/06/10 00:59:12;;;;;;;;;;;15.70;58.80;14.80;102095.00;;;;5033345;28;20166;-71
2021/06/10 01:01:38;;;;;;;3.67;2.97;;;15.60;59.80;14.80;102099.00;;;;5037882;28;20406;-71
2021/06/10 01:04:04;;;;;;;4.65;3.00;;;15.60;58.40;14.80;102103.00;;;;5022328;28;20047;-71
2021/06/10 01:06:54;;;;;;;4.43;3.05;;;15.60;58.60;14.80;102098.00;;;;5038730;28;20048;-71
2021/06/10 01:09:47;;;;;;;5.40;3.10;;;15.50;58.80;14.70;102098.00;;;;5031338;28;20578;-71
2021/06/10 01:12:54;;;;;;;3.25;2.40;;;15.50;58.80;14.70;102090.00;;;;5059166;28;20564;-71
2021/06/10 01:15:24;;;;;;;3.42;2.55;;;15.50;59.00;14.70;102089.00;;;;5041796;28;20491;-72
2021/06/10 01:17:51;;;;;;;6.05;3.20;;;15.40;58.50;14.60;102098.00;;;;5025661;28;20037;-71
2021/06/10 01:20:21;;;;;;;4.57;2.72;;;15.40;58.90;14.60;102096.00;;;;5043092;28;20519;-71
2021/06/10 01:23:09;;;;;;;4.07;3.00;;;15.40;58.30;14.60;102099.00;;;;5042997;28;20258;-72
2021/06/10 01:25:35;;;;;;;6.50;3.00;;;15.40;59.80;14.60;102095.00;;;;5041603;28;20541;-71
2021/06/10 01:28:10;;;;;;;4.20;2.97;;;15.40;59.70;14.60;102093.00;;;;5041881;28;20037;-71
2021/06/10 01:30:43;;;;;;;4.03;3.03;;;15.40;58.90;14.60;102094.00;;;;5022359;28;20056;-71
2021/06/10 01:33:16;;;;;;;7.68;4.10;;;15.40;60.00;14.60;102098.00;;;;5041430;28;20041;-70
2021/06/10 01:35:56;;;;;;;5.40;3.90;;;15.30;60.00;14.50;102094.00;;;;5054216;28;20122;-71
2021/06/10 01:38:25;;;;;;;5.20;3.17;;;15.30;60.30;14.50;102095.00;;;;5057103;28;20073;-71
2021/06/10 01:40:53;;;;;;;4.45;3.30;;;15.30;60.10;14.50;102097.00;;;;5056558;28;20041;-71
2021/06/10 01:43:24;;;;;;;3.80;2.90;;;15.30;59.80;14.50;102097.00;;;;5024966;28;20126;-71
2021/06/10 01:45:50;;;;;;;4.57;3.20;;;15.30;60.50;14.50;102090.00;;;;5040386;28;20033;-71
2021/06/10 01:48:20;;;;;;;4.20;3.07;;;15.30;60.80;14.50;102100.00;;;;5040933;28;20059;-71
2021/06/10 01:50:50;;;;;;;5.57;3.20;;;15.30;61.20;14.50;102097.00;;;;5026153;28;20140;-71
2021/06/10 01:53:17;;;;;;;5.15;3.60;;;15.30;60.20;14.50;102091.00;;;;5054654;28;20067;-71
2021/06/10 01:55:44;;;;;;;;;;;15.30;61.30;14.40;102087.00;;;;5053465;28;20044;-71
2021/06/10 01:58:11;;;;;;;5.65;3.13;;;15.20;62.60;14.50;102087.00;;;;5039062;28;19967;-70
2021/06/10 02:00:38;;;;;;;3.85;3.05;;;15.20;61.20;14.50;102088.00;;;;5032828;28;20032;-71
2021/06/10 02:03:05;;;;;;;3.85;3.08;;;15.30;61.50;14.50;102087.00;;;;5037146;28;20127;-69
2021/06/10 02:05:32;;;;;;;6.13;3.53;;;15.30;61.80;14.50;102093.00;;;;5036568;28;20072;-71
2021/06/10 02:07:59;;;;;;;3.72;3.10;;;15.20;62.50;14.50;102086.00;;;;5053230;28;20053;-70
2021/06/10 02:10:27;;;;;;;4.13;3.38;;;15.20;61.10;14.50;102094.00;;;;5044679;28;20076;-71
2021/06/10 02:12:55;;;;;;;4.32;2.92;;;15.20;62.10;14.50;102097.00;;;;5037672;28;20044;-70
2021/06/10 02:15:21;;;;;;;3.65;3.03;;;15.30;62.50;14.50;102094.00;;;;5039680;28;20045;-70
2021/06/10 02:17:48;;;;;;;4.68;3.53;;;15.30;62.40;14.50;102084.00;;;;5042830;28;20452;-70
2021/06/10 02:20:20;;;;;;;5.70;3.47;;;15.20;62.60;14.40;102084.00;;;;5007610;28;20045;-70
2021/06/10 02:22:48;;;;;;;6.65;3.90;;;15.20;61.80;14.40;102080.00;;;;5033897;28;20060;-71
2021/06/10 02:25:14;;;;;;;;;;;15.20;62.80;14.30;102078.00;;;;5042629;28;20025;-71
2021/06/10 02:27:41;;;;;;;5.55;3.72;;;15.10;63.10;14.30;102077.00;;;;5041682;28;19962;-70
2021/06/10 02:30:10;;;;;;;6.30;3.75;;;15.10;62.90;14.30;102072.00;;;;5041389;28;20044;-70
2021/06/10 02:32:37;;;;;;;4.28;3.63;;;15.10;63.00;14.30;102076.00;;;;5041844;28;20644;-71
2021/06/10 02:35:09;;;;;;;5.72;4.00;;;15.10;63.10;14.30;102078.00;;;;5038364;28;20048;-70
2021/06/10 02:37:44;;;;;;;6.25;4.28;;;15.10;62.80;14.30;102068.00;;;;5037450;28;20053;-71
2021/06/10 02:40:16;;;;;;;6.47;4.05;;;15.10;63.70;14.30;102069.00;;;;5036555;28;20037;-70
2021/06/10 02:42:44;;;;;;;6.53;4.78;;;15.10;63.90;14.30;102067.00;;;;5039342;28;20048;-70
2021/06/10 02:45:11;;;;;;;5.82;4.00;;;15.00;63.30;14.30;102067.00;;;;5036992;28;20048;-70
2021/06/10 02:47:37;;;;;;;;;;;15.00;64.00;14.20;102063.00;;;;5039689;28;20040;-71
2021/06/10 02:50:06;;;;;;;7.00;4.30;;;15.00;65.70;14.20;102052.00;;;;5036943;28;20047;-70
2021/06/10 02:52:35;;;;;;;7.00;3.88;;;15.00;63.80;14.20;102053.00;;;;5039150;28;20041;-71
2021/06/10 02:55:01;;;;;;;6.10;4.22;;;15.00;64.10;14.20;102048.00;;;;5055013;28;20041;-71
2021/06/10 02:57:29;;;;;;;6.95;4.32;;;15.00;64.40;14.20;102048.00;;;;5038258;28;20120;-71
2021/06/10 02:59:55;;;;;;;4.43;4.03;;;15.00;64.70;14.20;102057.00;;;;5021070;28;20117;-71
2021/06/10 03:02:22;;;;;;;6.88;4.75;;;14.50;64.80;14.20;102053.00;;;;5036237;28;20095;-72
2021/06/10 03:04:48;;;;;;;4.97;3.95;;;14.90;65.10;14.10;102049.00;;;;5038823;28;20045;-70
2021/06/10 03:07:16;;;;;;;6.95;4.25;;;14.90;65.20;14.10;102048.00;;;;5041082;28;20043;-70
2021/06/10 03:09:45;;;;;;;4.93;4.00;;;14.90;65.30;14.10;102039.00;;;;5038339;28;20442;-70
2021/06/10 03:12:14;;;;;;;5.55;4.20;;;14.90;65.40;14.10;102037.00;;;;5040781;28;20045;-70
2021/06/10 03:14:42;;;;;;;6.53;4.30;;;14.90;65.30;14.10;102043.00;;;;5029408;28;20555;-70
2021/06/10 03:17:12;;;;;;;5.20;4.07;;;14.90;65.40;14.10;102040.00;;;;5040806;28;20045;-71
2021/06/10 03:19:38;;;;;;;6.50;4.30;;;14.90;65.60;14.10;102043.00;;;;5023632;28;20491;-71
2021/06/10 03:22:04;;;;;;;5.53;4.18;;;14.90;65.80;14.10;102037.00;;;;5038451;28;20534;-70
2021/06/10 03:24:31;;;;;;;5.38;4.10;;;14.90;66.40;14.10;102034.00;;;;5023207;28;20029;-71
2021/06/10 03:26:57;;;;;;;5.53;4.15;;;14.90;66.20;14.10;102035.00;;;;5039039;28;20404;-70
2021/06/10 03:29:23;;;;;;;6.57;4.18;;;14.90;66.20;14.10;102035.00;;;;5038272;28;20219;-71
2021/06/10 03:31:50;;;;;;;5.03;3.75;;;14.90;66.70;14.10;102034.00;;;;5035834;28;20045;-71
2021/06/10 03:34:18;;;;;;;4.88;3.97;;;14.80;66.10;14.10;102033.00;;;;5035863;28;20053;-70
2021/06/10 03:36:46;;;;;;;4.95;3.83;;;14.90;65.50;14.10;102027.00;;;;5037060;28;20036;-71
2021/06/10 03:39:15;;;;;;;6.88;5.13;;;14.90;65.60;14.10;102031.00;;;;5035084;28;20048;-71
2021/06/10 03:41:42;;;;;;;9.20;4.78;;;14.90;66.90;14.10;102031.00;;;;5036844;28;20033;-71
2021/06/10 03:44:10;;;;;;;6.05;4.85;;;14.90;66.80;14.10;102022.00;;;;5038639;28;20076;-71
2021/06/10 03:46:36;;;;;;;;;;;14.90;66.80;14.10;102030.00;;;;5036980;28;20482;-72
2021/06/10 03:49:03;;;;;;;9.05;5.70;;;14.80;68.10;14.10;102021.00;;;;5053934;28;19924;-71
2021/06/10 03:51:28;;;;;;;9.15;6.25;;;14.80;66.00;14.10;102025.00;;;;5042586;28;20033;-74
2021/06/10 03:53:55;;;;;;;8.70;5.82;;;14.80;67.00;14.10;102022.00;;;;5040192;28;20045;-73
2021/06/10 03:56:22;;;;;;;7.80;6.00;;;14.80;67.40;14.10;102028.00;;;;5041766;28;20041;-73
2021/06/10 03:58:48;;;;;;;7.80;6.00;;;14.80;67.40;14.10;102023.00;;;;5041977;28;20480;-73
2021/06/10 04:01:14;;;;;;;9.73;6.15;;;14.80;67.50;14.10;102030.00;;;;5009056;28;20087;-74
2021/06/10 04:03:40;;;;;;;8.77;6.32;;;14.80;66.80;14.10;102035.00;;;;5025513;28;20081;-73
2021/06/10 04:06:06;;;;;;;9.35;6.25;;;14.80;66.50;14.10;102032.00;;;;5041379;28;20487;-73
2021/06/10 04:08:32;;;;;;;9.40;6.30;;;14.80;67.50;14.10;102034.00;;;;5028937;28;20037;-74
2021/06/10 04:10:58;;;;;;;9.52;6.35;;;14.80;67.90;14.10;102027.00;;;;5040407;28;20098;-72
2021/06/10 04:13:24;;;;;;;8.20;5.75;;;14.80;67.80;14.10;102026.00;;;;5055246;28;20048;-73
2021/06/10 04:15:50;;;;;;;9.90;6.15;;;14.80;67.50;14.10;102030.00;;;;5032965;28;20040;-73
2021/06/10 04:18:19;;;;;;;11.50;7.03;;;14.80;67.90;14.10;102028.00;;;;5043277;28;20113;-72
2021/06/10 04:20:49;;;;;;;8.45;6.07;;;14.90;68.20;14.10;102027.00;;;;5036746;28;20041;-73
2021/06/10 04:23:16;;;;;;;7.93;6.65;;;14.90;68.10;14.20;102022.00;;;;5038190;28;20503;-72
2021/06/10 04:25:42;;;;;;;9.77;7.10;;;14.90;68.30;14.20;102017.00;;;;5020786;28;20041;-73
2021/06/10 04:28:08;;;;;;;7.68;6.25;;;14.90;68.70;14.20;102014.00;;;;5042508;28;20045;-74
2021/06/10 04:30:34;;;;;;;10.00;6.65;;;14.90;67.30;14.20;102019.00;;;;5043160;28;20068;-74
2021/06/10 04:33:00;;;;;;;10.67;7.53;;;14.90;67.40;14.20;102017.00;;;;5016586;28;20049;-74
2021/06/10 04:35:26;;;;;;;9.68;7.20;;;15.00;67.50;14.30;102019.00;;;;5037358;28;20052;-72
2021/06/10 04:37:52;;;;;;;11.02;8.77;;;15.00;68.40;14.40;102020.00;;;;5040165;28;20041;-73
2021/06/10 04:40:19;;;;;;;11.45;8.90;;;15.00;68.60;14.50;102031.00;;;;5022529;28;20044;-72
2021/06/10 04:42:45;;;;;;;13.83;9.40;;;15.10;68.80;14.60;102032.00;;;;5023391;28;20264;-73
2021/06/10 04:45:11;;;;;;;14.00;9.90;;;15.20;68.70;14.60;102036.00;;;;5040904;28;20032;-73
2021/06/10 04:47:38;;;;;;;12.68;8.85;;;15.30;68.70;14.70;102033.00;;;;5042975;28;20392;-73
2021/06/10 04:50:06;;;;;;;9.95;8.50;;;15.30;67.80;14.80;102038.00;;;;5038852;28;20047;-72
2021/06/10 04:52:32;;;;;;;11.57;8.30;;;15.40;68.80;14.90;102038.00;;;;5043005;28;20052;-73
2021/06/10 04:54:58;;;;;;;12.80;9.60;;;15.50;68.90;15.00;102039.00;;;;5041702;28;20049;-74
2021/06/10 04:57:24;;;;;;;11.45;9.57;;;15.60;69.10;15.20;102031.00;;;;5039956;28;20065;-74
2021/06/10 04:59:50;;;;;;;12.32;9.10;;;15.70;68.90;15.30;102046.00;;;;5025747;28;20048;-73
2021/06/10 05:02:16;;;;;;;12.55;9.98;;;15.80;68.90;15.40;102044.00;;;;5026446;28;20459;-74
2021/06/10 05:04:42;;;;;;;12.18;9.10;;;15.90;69.10;15.60;102031.00;;;;5043221;28;20061;-74
2021/06/10 05:07:11;;;;;;;10.73;9.63;;;16.00;68.80;15.70;102028.00;;;;5026136;28;20595;-73
2021/06/10 05:09:37;;;;;;;14.60;10.85;;;16.10;68.60;15.90;102030.00;;;;5028081;28;20056;-73
2021/06/10 05:12:04;;;;;;;14.02;9.98;;;16.30;68.60;16.00;102033.00;;;;5042454;28;20512;-74
2021/06/10 05:14:31;;;;;;;;;;;16.40;67.50;16.10;102040.00;;;;5040879;28;20045;-74
2021/06/10 05:16:57;;;;;;;12.95;11.32;;;16.50;69.90;16.20;102045.00;;;;5040823;28;19927;-73
2021/06/10 05:19:23;;;;;;;17.08;11.27;;;16.60;68.20;16.30;102039.00;;;;5043183;28;20048;-74
2021/06/10 05:21:49;;;;;;;15.95;11.70;;;16.80;67.40;16.50;102042.00;;;;5060771;28;20041;-74
2021/06/10 05:24:16;;;;;;;14.88;12.10;;;16.90;68.20;16.60;102040.00;;;;5023660;28;20117;-74
2021/06/10 05:26:42;;;;;;;14.43;11.20;;;17.00;67.40;16.70;102040.00;;;;5042220;28;20045;-75
2021/06/10 05:29:08;;;;;;;16.42;10.75;;;17.10;67.60;16.80;102050.00;;;;5043166;28;20032;-72
2021/06/10 05:31:34;;;;;;;15.60;12.07;;;17.20;67.10;17.00;102050.00;;;;5042289;28;20057;-73
2021/06/10 05:34:00;;;;;;;13.65;11.27;;;17.30;67.20;17.10;102044.00;;;;5042829;28;20330;-73
2021/06/10 05:36:26;;;;;;;13.23;11.67;;;17.50;67.20;17.30;102048.00;;;;5042075;28;20041;-72
2021/06/10 05:38:52;;;;;;;22.20;13.15;;;17.60;67.20;17.30;102055.00;;;;5037164;28;20102;-73
2021/06/10 05:41:19;;;;;;;16.00;11.90;;;17.70;66.50;17.50;102056.00;;;;5044012;28;20040;-73
2021/06/10 05:43:45;;;;;;;14.52;12.30;;;17.80;66.40;17.60;102061.00;;;;5039855;28;21023;-73
2021/06/10 05:46:11;;;;;;;15.13;11.93;;;17.90;66.30;17.70;102061.00;;;;5059749;28;20037;-73
2021/06/10 05:48:37;;;;;;;15.00;12.57;;;18.00;66.70;17.80;102064.00;;;;5039990;28;20045;-75
2021/06/10 05:51:03;;;;;;;13.60;11.77;;;18.10;66.30;17.90;102060.00;;;;5038890;28;20041;-71
2021/06/10 05:53:30;;;;;;;14.82;12.23;;;18.30;65.40;18.10;102073.00;;;;5042956;28;20041;-74
2021/06/10 05:55:56;;;;;;;14.82;12.40;;;18.40;65.00;18.20;102067.00;;;;5025392;28;20045;-75
2021/06/10 05:58:22;;;;;;;14.63;12.25;;;18.50;65.80;18.40;102068.00;;;;5041717;28;20049;-73
2021/06/10 06:00:50;;;;;;;14.10;12.57;;;18.70;66.20;18.50;102066.00;;;;5039675;28;20040;-73
2021/06/10 06:03:16;;;;;;;14.15;11.65;;;18.80;65.90;18.70;102075.00;;;;5040351;28;20356;-73
2021/06/10 06:05:42;;;;;;;17.63;13.05;;;19.10;64.10;18.80;102081.00;;;;5044306;28;20044;-73
2021/06/10 06:08:09;;;;;;;14.32;12.52;;;19.00;64.80;19.00;102071.00;;;;5041175;28;20040;-73
2021/06/10 06:10:35;;;;;;;16.05;12.85;;;19.20;63.90;19.10;102072.00;;;;5041825;28;20044;-74
2021/06/10 06:13:03;;;;;;;14.93;11.83;;;19.40;65.20;19.30;102072.00;;;;5037978;28;20437;-73
2021/06/10 06:15:30;;;;;;;16.05;12.10;;;19.40;64.90;19.40;102067.00;;;;5008804;28;20033;-74
2021/06/10 06:17:56;;;;;;;14.68;12.65;;;19.60;64.40;19.60;102075.00;;;;5041846;28;20045;-74
2021/06/10 06:20:23;;;;;;;15.35;12.75;;;19.80;64.60;19.70;102083.00;;;;5041804;28;20048;-74
2021/06/10 06:22:49;;;;;;;14.65;12.45;;;19.90;64.00;19.80;102084.00;;;;5044218;28;20380;-74
2021/06/10 06:25:18;;;;;;;14.77;12.82;;;20.00;63.80;19.90;102095.00;;;;5043027;28;20052;-74
2021/06/10 06:27:45;;;;;;;13.77;11.52;;;20.20;62.90;20.10;102094.00;;;;5041316;28;20052;-74
2021/06/10 06:30:13;;;;;;;14.45;11.15;;;20.50;62.80;20.30;102095.00;;;;5041807;28;20102;-75
2021/06/10 06:32:39;;;;;;;14.13;11.82;;;20.50;62.30;20.40;102106.00;;;;5039538;28;20061;-75
2021/06/10 06:35:08;;;;;;;15.85;11.90;;;20.70;61.70;20.60;102097.00;;;;5020970;28;20732;-74
2021/06/10 06:37:34;;;;;;;21.90;12.75;;;20.70;61.70;20.80;102090.00;;;;5026514;28;20128;-74
2021/06/10 06:40:01;;;;;;;15.77;10.88;;;20.90;62.40;20.90;102095.00;;;;5040376;28;20096;-74
2021/06/10 06:42:27;;;;;;;13.65;12.25;;;21.00;61.60;21.00;102094.00;;;;5041078;28;20506;-74
2021/06/10 06:44:53;;;;;;;14.63;12.40;;;21.10;61.50;21.10;102109.00;;;;5039862;28;20029;-75
2021/06/10 06:47:19;;;;;;;15.70;11.33;;;21.20;63.30;21.30;102090.00;;;;5022889;28;20043;-75
2021/06/10 06:49:45;;;;;;;14.87;11.63;;;21.40;61.80;21.30;102087.00;;;;5021593;28;20072;-75
2021/06/10 06:52:11;;;;;;;15.45;11.75;;;21.50;61.40;21.50;102092.00;;;;5044679;28;20096;-75
2021/06/10 06:54:37;;;;;;;15.32;12.38;;;21.60;61.00;21.60;102099.00;;;;5042690;28;20057;-74
2021/06/10 06:57:06;;;;;;;17.43;12.07;;;21.70;60.50;21.70;102099.00;;;;5042905;28;20044;-72
2021/06/10 06:59:33;;;;;;;14.88;11.55;;;21.90;58.50;21.90;102091.00;;;;5058400;28;20142;-75
2021/06/10 07:01:59;;;;;;;16.10;12.45;;;22.40;60.60;22.00;102095.00;;;;5047569;28;20044;-75
2021/06/10 07:04:25;;;;;;;15.67;12.77;;;22.10;59.60;22.10;102099.00;;;;5046252;28;20097;-75
2021/06/10 07:06:55;;;;;;;17.63;13.35;;;22.20;59.50;22.10;102098.00;;;;5043711;28;20033;-75
2021/06/10 07:09:20;;;;;;;13.98;11.63;;;22.30;58.10;22.20;102101.00;;;;5046497;28;20094;-75
2021/06/10 07:11:47;;;;;;;14.70;11.83;;;22.30;58.80;22.30;102092.00;;;;5043159;28;20620;-74
2021/06/10 07:14:14;;;;;;;14.35;12.20;;;22.40;58.30;22.40;102099.00;;;;5043402;28;20043;-75
2021/06/10 07:16:41;;;;;;;15.82;12.13;;;22.40;57.60;22.50;102103.00;;;;5027100;28;20090;-75
2021/06/10 07:19:07;;;;;;;18.58;12.10;;;22.60;58.10;22.60;102096.00;;;;5043963;28;20037;-75
2021/06/10 07:21:48;;;;;;;14.40;11.75;;;22.80;58.00;22.60;102091.00;;;;5025973;28;20040;-76
2021/06/10 07:24:14;;;;;;;15.73;11.52;;;22.80;57.70;22.70;102102.00;;;;5023591;28;20115;-75
2021/06/10 07:26:42;;;;;;;12.80;11.23;;;22.80;57.10;22.90;102104.00;;;;5043571;28;20487;-75
2021/06/10 07:29:10;;;;;;;16.27;11.65;;;23.00;56.80;23.00;102096.00;;;;5045875;28;20152;-74
2021/06/10 07:31:36;;;;;;;21.73;13.05;;;23.10;57.00;23.10;102103.00;;;;5043025;28;20135;-74
2021/06/10 07:34:06;;;;;;;21.20;12.32;;;23.20;56.60;23.10;102104.00;;;;5023526;28;20033;-75
2021/06/10 07:36:34;;;;;;;20.52;12.75;;;23.30;55.60;23.10;102104.00;;;;5043493;28;20504;-74
2021/06/10 07:39:03;;;;;;;18.55;12.40;;;23.30;56.20;23.20;102096.00;;;;5046600;28;20140;-74
2021/06/10 07:41:29;;;;;;;18.88;12.30;;;23.40;55.80;23.40;102092.00;;;;5042863;28;20041;-74
2021/06/10 07:43:56;;;;;;;15.50;11.85;;;23.60;53.10;23.60;102100.00;;;;5046961;28;20040;-74
2021/06/10 07:46:21;;;;;;;;;;;23.60;55.20;23.60;102108.00;;;;5040961;28;20064;-74
2021/06/10 07:48:47;;;;;;;15.55;11.52;;;23.80;54.30;23.80;102104.00;;;;5039699;28;20536;-73
2021/06/10 07:51:14;;;;;;;15.55;11.88;;;23.90;55.30;24.00;102114.00;;;;5038039;28;20075;-74
2021/06/10 07:53:41;;;;;;;12.35;10.75;;;24.00;54.20;24.10;102113.00;;;;5042636;28;20044;-74
2021/06/10 07:56:07;;;;;;;17.30;11.00;;;24.20;53.80;24.20;102114.00;;;;5041858;28;20044;-74
2021/06/10 07:58:35;;;;;;;13.90;10.48;;;24.30;53.30;24.20;102119.00;;;;5038814;28;20102;-75
2021/06/10 08:01:03;;;;;;;17.25;10.32;;;24.30;53.00;24.20;102125.00;;;;5038332;28;20040;-76
2021/06/10 08:03:30;;;;;;;15.93;9.18;;;24.40;52.60;24.30;102127.00;;;;5023047;28;20083;-76
2021/06/10 08:05:58;;;;;;;13.07;9.63;;;24.40;52.10;24.30;102115.00;;;;5039310;28;20052;-76
2021/06/10 08:08:24;;;;;;;12.25;8.70;;;24.50;51.80;24.40;102122.00;;;;5041452;28;20049;-74
2021/06/10 08:10:52;;;;;;;12.43;9.48;;;24.60;51.40;24.50;102121.00;;;;5040978;28;20164;-75
2021/06/10 08:13:21;;;;;;;10.52;8.43;;;24.60;50.80;24.50;102130.00;;;;5037574;28;20064;-74
2021/06/10 08:15:50;;;;;;;11.43;8.40;;;24.70;50.10;24.60;102127.00;;;;5023536;28;20045;-75
2021/06/10 08:18:18;;;;;;;9.57;7.32;;;24.70;50.30;24.80;102126.00;;;;5042012;28;20033;-75
2021/06/10 08:20:44;;;;;;;9.52;7.72;;;24.90;49.90;25.00;102125.00;;;;5030052;28;20412;-76
2021/06/10 08:23:10;;;;;;;11.48;8.15;;;25.00;48.80;25.10;102115.00;;;;5043505;28;20036;-76
2021/06/10 08:25:42;;;;;;;12.88;8.60;;;25.20;48.60;25.20;102120.00;;;;5028306;28;20426;-75
2021/06/10 08:28:11;;;;;;;16.80;7.70;;;25.30;48.30;25.40;102118.00;;;;5042256;28;20048;-75
2021/06/10 08:30:38;;;;;;;9.75;7.32;;;25.40;48.10;25.50;102117.00;;;;5045545;28;20095;-75
2021/06/10 08:33:04;;;;;;;;;;;25.50;47.90;25.50;102119.00;;;;5027487;28;20040;-75
2021/06/10 08:35:30;;;;;;;9.27;6.00;;;25.70;45.30;25.70;102109.00;;;;5044728;28;19963;-76
2021/06/10 08:37:58;;;;;;;10.60;6.22;;;25.70;47.10;25.80;102109.00;;;;5043877;28;20147;-74
2021/06/10 08:40:24;;;;;;;7.28;6.10;;;25.80;47.60;25.90;102116.00;;;;5047035;28;20049;-75
2021/06/10 08:42:50;;;;;;;8.30;5.85;;;25.90;47.20;25.90;102113.00;;;;5045019;28;20439;-75
2021/06/10 08:45:19;;;;;;;6.90;5.47;;;26.00;46.40;26.10;102119.00;;;;5045071;28;20543;-74
2021/06/10 08:47:48;;;;;;;9.13;5.88;;;26.10;45.80;26.20;102116.00;;;;5039746;28;20057;-74
2021/06/10 08:50:22;;;;;;;6.13;4.95;;;26.20;45.80;26.30;102120.00;;;;5043010;28;20400;-75
2021/06/10 08:52:48;;;;;;;6.43;4.65;;;26.40;45.50;26.20;102125.00;;;;5043777;28;20040;-74
2021/06/10 08:55:15;;;;;;;5.07;4.57;;;26.30;45.30;26.20;102130.00;;;;5023275;28;20048;-74
2021/06/10 08:57:41;;;;;;;7.97;5.38;;;26.30;42.00;26.30;102128.00;;;;5015870;28;20072;-75
2021/06/10 09:00:08;;;;;;;6.10;5.50;;;26.40;44.60;26.40;102128.00;;;;5049498;28;20086;-74
2021/06/10 09:02:35;;;;;;;6.82;5.65;;;26.40;44.30;26.50;102132.00;;;;5046755;28;20056;-75
2021/06/10 09:05:06;;;;;;;7.63;5.43;;;26.70;43.30;26.60;102133.00;;;;5047791;28;20049;-75
2021/06/10 09:07:38;;;;;;;5.65;4.15;;;26.70;43.90;26.80;102138.00;;;;5035277;28;20091;-76
2021/06/10 09:10:07;;;;;;;5.95;5.35;;;26.80;43.70;26.80;102132.00;;;;5042794;28;20060;-75
2021/06/10 09:12:50;;;;;;;9.88;5.50;;;26.90;44.20;26.80;102139.00;;;;5056850;28;20049;-76
2021/06/10 09:15:18;;;;;;;8.15;5.55;;;26.90;42.40;26.90;102140.00;;;;5045284;28;20048;-75
2021/06/10 09:17:44;;;;;;;6.40;5.57;;;27.00;43.80;27.00;102131.00;;;;5041365;28;20684;-75
2021/06/10 09:20:19;;;;;;;11.30;4.68;;;27.10;43.80;27.10;102129.00;;;;5044689;28;20048;-76
2021/06/10 09:23:07;;;;;;;11.55;5.93;;;27.20;42.90;26.90;102129.00;;;;5042495;28;20561;-76
2021/06/10 09:25:34;;;;;;;5.43;4.93;;;27.10;42.90;26.90;102129.00;;;;5028310;28;20044;-75
2021/06/10 09:28:06;;;;;;;6.90;5.30;;;27.00;43.70;26.80;102137.00;;;;5044685;28;20342;-74
2021/06/10 09:30:50;;;;;;;9.05;5.30;;;27.10;42.40;26.90;102127.00;;;;5047541;28;20029;-74
2021/06/10 09:33:24;;;;;;;7.88;5.20;;;27.00;43.00;27.00;102134.00;;;;5045825;28;20061;-75
2021/06/10 09:35:50;;;;;;;7.28;5.78;;;27.20;41.80;27.00;102137.00;;;;5040973;28;20044;-75
2021/06/10 09:38:20;;;;;;;7.82;6.25;;;27.20;43.10;27.10;102145.00;;;;5035380;28;20060;-75
2021/06/10 09:40:53;;;;;;;9.23;6.57;;;27.20;42.40;27.10;102131.00;;;;5040869;28;20049;-74
2021/06/10 09:43:20;;;;;;;6.53;5.82;;;27.30;42.40;26.90;102135.00;;;;5043303;28;20406;-75
2021/06/10 09:45:53;;;;;;;6.97;5.38;;;27.20;42.40;27.00;102133.00;;;;5023593;28;20196;-75
2021/06/10 09:48:32;;;;;;;8.18;5.50;;;27.20;42.40;27.10;102138.00;;;;5055131;28;20056;-75
2021/06/10 09:51:00;;;;;;;8.70;6.65;;;27.30;41.30;27.20;102139.00;;;;5043890;28;20060;-75
2021/06/10 09:53:29;;;;;;;8.80;6.45;;;27.40;42.10;27.10;102135.00;;;;5043377;28;20044;-75
2021/06/10 09:56:06;;;;;;;6.53;5.72;;;27.30;42.00;27.20;102139.00;;;;5040655;28;20043;-74
2021/06/10 09:58:40;;;;;;;8.23;6.78;;;27.30;41.90;27.40;102143.00;;;;5044689;28;20636;-75
2021/06/10 10:01:13;;;;;;;8.52;6.20;;;27.50;41.50;27.50;102146.00;;;;5043296;28;20045;-75
2021/06/10 10:03:43;;;;;;;9.57;7.07;;;27.60;41.90;27.30;102135.00;;;;5040692;28;20041;-76
2021/06/10 10:06:20;;;;;;;6.90;5.40;;;27.50;38.90;27.30;102140.00;;;;5022612;28;20072;-75
2021/06/10 10:09:03;;;;;;;5.00;4.22;;;27.50;41.50;27.50;102135.00;;;;5040254;28;20041;-75
2021/06/10 10:11:33;;;;;;;9.07;5.47;;;27.70;41.00;27.60;102134.00;;;;5061293;28;20099;-76
2021/06/10 10:14:05;;;;;;;5.72;5.15;;;27.70;40.20;27.70;102137.00;;;;5040167;28;20044;-76
2021/06/10 10:16:34;;;;;;;7.18;5.32;;;27.90;39.70;27.80;102136.00;;;;5045158;28;20047;-76
2021/06/10 10:19:04;;;;;;;5.18;4.60;;;28.00;39.80;27.90;102126.00;;;;5043205;28;20069;-76
2021/06/10 10:21:35;;;;;;;8.65;5.03;;;28.00;39.40;27.90;102129.00;;;;5045038;28;20051;-76
2021/06/10 10:24:08;;;;;;;7.85;6.13;;;28.10;39.00;27.90;102131.00;;;;5024623;28;20045;-76
2021/06/10 10:26:36;;;;;;;7.80;5.82;;;28.10;39.10;27.60;102132.00;;;;5041917;28;20073;-75
2021/06/10 10:29:06;;;;;;;7.38;6.10;;;27.90;38.50;27.60;102122.00;;;;5045256;28;20048;-75
2021/06/10 10:31:34;;;;;;;10.55;7.80;;;27.90;39.40;27.60;102128.00;;;;5058629;28;20048;-75
2021/06/10 10:34:00;;;;;;;9.95;7.78;;;27.90;37.80;27.50;102125.00;;;;5042611;28;20048;-76
2021/06/10 10:36:30;;;;;;;8.95;7.53;;;27.80;37.00;27.50;102121.00;;;;5044220;28;20132;-75
2021/06/10 10:39:02;;;;;;;8.55;6.88;;;27.80;39.60;27.70;102113.00;;;;5040073;28;20032;-75
2021/06/10 10:41:28;;;;;;;8.50;7.40;;;27.90;39.40;27.90;102119.00;;;;5043843;28;20048;-76
2021/06/10 10:44:24;;;;;;;10.07;8.27;;;28.00;39.20;27.90;102112.00;;;;5042375;28;20445;-76
2021/06/10 10:46:59;;;;;;;9.52;6.47;;;28.20;39.10;27.90;102127.00;;;;5042258;28;20554;-75
2021/06/10 10:49:31;;;;;;;7.82;5.47;;;28.10;36.90;27.80;102117.00;;;;5043412;28;20163;-75